05:00
Airports
History
Links
Donate
Help keep this website running!
PayPal
Bitcoin
This page is community maintained. The information is intended for PC simulator navigation or reference.
Always use approved charts for navigation.
VT47
Blodgett
Blodgett (VT47)
Vernon, Vermont, United States (5354)
4
Lat/Lng:42° 45' 30.3" N / 72° 28' 45.32" W
42.758416 / -72.479255
Elevation:235'ft / 72mMSL
ID / ICAO:VT47
Runways:1
Longest:02-20
Grass 531m / 1,742ft
Nearby Weather04:56 GMT 2017-09-21
Nearby weather at KEEN, Dillant-hopkins located 14.3 nautical miles from VT47
Altimeter: 29.99
Visibility: 10.0 statute miles
Wind: 0 knots (from 000°)
Temp: 17°c / 63°f
Humidity: 93.8%

METAR: KEEN 210456Z AUTO 00000KT 10SM CLR 17/16 A2999 RMK AO2 SLP170 T01670156 402500167

(Powered by phpweather)
Nearby VORs <50NM
Nearby NDBs
Runway 02 / 20
Dimensions:531.1 x 18.3m 1742' x 60'ft
Surface:Grass
Runway 02 [A]Runway 20 [B]
Heading:004°TH 184°TH
Lat:
Lng:
42° 45' 21.69"N
72° 28' 46.34"W
42° 45' 38.9"N
72° 28' 44.29"W
User Notes and Comments
42° 45' 30.3" N / 72° 28' 45.32" W
Distance To
Airport ID:
Nearby Airports
(U) Turners Falls 11.7 NM
0B5 S 190°
4 Moores Field 11.7 NM
VT41 NNW 347°
(U) Dillant-hopkins 14.3 NM
KEEN ( WX ) NE 47°
(U) Orange Muni 16.2 NM
KORE ( WX ) SE 143°
4 Santas 17.0 NM
VT06 N
(R) Frank D. Comerford 19.2 NM
NH39 N
(R) Onyon 20.0 NM
VT43 NNW 334°
VFR Chart
Flight Planning at SkyVector.com